Terminal Aerodrome Forecast
Issued by NWS Cleveland, OH

Home | Current Version | Previous Version | Graphics & Text | Print | Product List | Glossary On
Versions: 1 2 3 4 5 6 7 8 9 10 11 12 13 14 15 16 17 18 19 20 21 22 23 24 25 26 27 28 29 30
000
FTUS41 KCLE 241000 AAA
TAFYNG
TAF AMD
KYNG 241022Z 2410/2506 29006KT 5SM BR OVC008
     FM241500 26008KT P6SM OVC015
     FM242100 26008KT 3SM -SHSN BR BKN007 OVC015=

USA.gov is the U.S. government's official web portal to all federal, state and local government web resources and services.